This is the latest recevied weather packets stored in our database for station/object DL6JOE-10. If no packets are shown the sender has not sent any weather packets the latest 10 day(s).
| Time | Temp. | Humidity | Pressure | Rain* | Wind** | Luminosity | Snow |
|---|---|---|---|---|---|---|---|
| 1788492495 | 19.44° C | 49% | 967.9 hPa | - | - | - | - |
| 1788491595 | 19.44° C | 49% | 967.9 hPa | - | - | - | - |
| 1788490695 | 19.44° C | 49% | 968 hPa | - | - | - | - |
| 1788489795 | 19.44° C | 49% | 967.9 hPa | - | - | - | - |
| 1788488895 | 19.44° C | 48% | 967.9 hPa | - | - | - | - |
| 1788487995 | 20° C | 48% | 968 hPa | - | - | - | - |
| 1788487095 | 20° C | 47% | 968.1 hPa | - | - | - | - |
| 1788486195 | 20° C | 47% | 967.8 hPa | - | - | - | - |
| 1788485294 | 20° C | 47% | 968 hPa | - | - | - | - |
| 1788484394 | 20.56° C | 46% | 968.1 hPa | - | - | - | - |
| 1788483494 | 20.56° C | 46% | 968.3 hPa | - | - | - | - |
| 1788481694 | 21.11° C | 45% | 968.4 hPa | - | - | - | - |
| 1788479894 | 21.11° C | 44% | 968.3 hPa | - | - | - | - |
| 1788478094 | 21.67° C | 43% | 968.6 hPa | - | - | - | - |
| 1788476294 | 22.22° C | 42% | 968.6 hPa | - | - | - | - |
| 1788473593 | 22.78° C | 41% | 968.7 hPa | - | - | - | - |
| 1788470893 | 23.33° C | 39% | 968.7 hPa | - | - | - | - |
| 1788469993 | 23.33° C | 39% | 968.5 hPa | - | - | - | - |
| 1788469093 | 23.89° C | 38% | 968.7 hPa | - | - | - | - |
| 1788468193 | 23.89° C | 38% | 968.4 hPa | - | - | - | - |
| 1788467293 | 24.44° C | 38% | 968.3 hPa | - | - | - | - |
| 1788466393 | 24.44° C | 37% | 968.5 hPa | - | - | - | - |
| 1788465492 | 25° C | 36% | 968.9 hPa | - | - | - | - |
| 1788463692 | 25.56° C | 35% | 968.4 hPa | - | - | - | - |
| 1788449291 | 31.11° C | 28% | 967.4 hPa | - | - | - | - |
* Rain since midnight (hover to see other rain measurements)
** Current wind speed in m/s (hover to see current wind gust speed)